createdAt,value
2022-12-28T00:04:40.361Z,14.20
2022-12-28T00:09:41.718Z,8.75
2022-12-28T00:14:43.049Z,7.82
2022-12-28T00:19:47.573Z,9.35
2022-12-28T00:24:48.870Z,8.23
2022-12-28T00:29:50.196Z,15.48
2022-12-28T00:34:51.536Z,11.93
2022-12-28T00:39:52.920Z,10.98
2022-12-28T00:44:54.294Z,14.60
2022-12-28T00:49:55.595Z,6.60
2022-12-28T00:54:56.887Z,14.00
2022-12-28T00:59:58.205Z,10.90
2022-12-28T01:04:59.528Z,8.23
2022-12-28T01:10:00.845Z,12.65
2022-12-28T01:15:06.500Z,15.43
2022-12-28T01:20:08.676Z,19.00
2022-12-28T01:25:10.111Z,13.73
2022-12-28T01:30:13.827Z,20.15
2022-12-28T01:35:15.194Z,11.25
2022-12-28T01:40:16.672Z,11.07
2022-12-28T01:45:20.856Z,9.63
2022-12-28T01:50:27.546Z,9.05
2022-12-28T01:55:33.607Z,7.63
2022-12-28T02:00:35.726Z,10.57
2022-12-28T02:05:39.932Z,13.18
2022-12-28T02:10:45.725Z,11.73
2022-12-28T02:15:48.201Z,12.57
2022-12-28T02:21:20.895Z,8.75
2022-12-28T02:26:38.413Z,9.00
2022-12-28T02:31:50.827Z,10.75
2022-12-28T02:37:05.705Z,10.40
2022-12-28T02:42:09.752Z,19.95
2022-12-28T02:47:35.373Z,11.65
2022-12-28T02:53:33.739Z,11.50
2022-12-28T02:58:53.536Z,12.63
2022-12-28T03:04:17.966Z,12.27
2022-12-28T03:09:35.822Z,12.40
2022-12-28T03:14:45.477Z,15.25
2022-12-28T03:20:12.699Z,11.18
2022-12-28T03:25:37.002Z,11.25
2022-12-28T03:31:01.230Z,14.55
2022-12-28T03:36:10.373Z,14.07
2022-12-28T03:41:16.104Z,14.05
2022-12-28T03:46:29.349Z,13.38
2022-12-28T03:51:32.502Z,11.38
2022-12-28T03:56:33.813Z,14.18
2022-12-28T04:01:35.166Z,13.02
2022-12-28T04:06:37.089Z,16.60
2022-12-28T04:11:38.397Z,13.57
2022-12-28T04:16:39.796Z,10.80
2022-12-28T04:21:41.161Z,13.27
2022-12-28T04:26:42.474Z,12.30
2022-12-28T04:31:43.850Z,16.35
2022-12-28T04:36:45.282Z,13.40
2022-12-28T04:41:46.631Z,12.40
2022-12-28T04:46:48.092Z,11.35
2022-12-28T04:51:49.425Z,13.20
2022-12-28T04:56:50.719Z,16.65
2022-12-28T05:01:52.132Z,14.30
2022-12-28T05:06:53.492Z,14.13
2022-12-28T05:11:54.820Z,16.42
2022-12-28T05:16:56.116Z,11.25
2022-12-28T05:21:57.439Z,13.13
2022-12-28T05:26:58.764Z,16.15
2022-12-28T05:32:00.093Z,16.88
2022-12-28T05:37:01.472Z,15.60
2022-12-28T05:42:02.913Z,12.27
2022-12-28T05:47:04.321Z,18.85
2022-12-28T05:52:05.665Z,11.57
2022-12-28T05:57:06.983Z,15.02
2022-12-28T06:02:08.411Z,12.68
2022-12-28T06:07:09.903Z,11.38
2022-12-28T06:12:11.240Z,14.45
2022-12-28T06:17:12.643Z,12.45
2022-12-28T06:22:13.959Z,9.80
2022-12-28T06:27:15.311Z,11.90
2022-12-28T06:32:16.623Z,9.75
2022-12-28T06:37:17.944Z,10.60
2022-12-28T06:42:19.265Z,10.55
2022-12-28T06:47:20.593Z,10.18
2022-12-28T06:52:22.125Z,8.63
2022-12-28T06:57:23.461Z,9.52
2022-12-28T07:02:25.015Z,8.15
2022-12-28T07:07:26.529Z,6.93
2022-12-28T07:12:27.844Z,6.63
2022-12-28T07:17:29.149Z,9.63
2022-12-28T07:22:30.496Z,6.32
2022-12-28T07:27:31.804Z,9.88
2022-12-28T07:32:36.892Z,5.70
2022-12-28T07:37:38.301Z,5.57
2022-12-28T07:42:39.641Z,4.45
2022-12-28T07:47:40.993Z,4.35
2022-12-28T07:52:42.301Z,8.50
2022-12-28T07:57:43.621Z,4.43
2022-12-28T08:02:44.941Z,5.32
2022-12-28T08:07:46.289Z,8.00
2022-12-28T08:12:47.627Z,3.60
2022-12-28T08:17:48.960Z,4.75
2022-12-28T08:22:50.329Z,5.22
2022-12-28T08:27:51.778Z,6.45
2022-12-28T08:32:53.082Z,3.42
2022-12-28T08:37:55.645Z,5.18
2022-12-28T08:42:58.976Z,4.10
2022-12-28T08:48:00.350Z,4.57
2022-12-28T08:53:01.756Z,5.93
2022-12-28T08:58:03.083Z,5.35
2022-12-28T09:03:04.485Z,3.03
2022-12-28T09:08:06.298Z,3.10
2022-12-28T09:13:07.855Z,4.18
2022-12-28T09:18:09.209Z,4.15
2022-12-28T09:23:10.548Z,3.20
2022-12-28T09:28:12.027Z,6.63
2022-12-28T09:33:31.952Z,3.30
2022-12-28T09:38:33.295Z,5.75
2022-12-28T09:43:34.688Z,5.88
2022-12-28T09:48:36.212Z,3.90
2022-12-28T09:53:37.755Z,2.50
2022-12-28T09:58:47.636Z,5.30
2022-12-28T10:03:49.629Z,3.78
2022-12-28T10:08:53.942Z,3.60
2022-12-28T10:14:00.444Z,3.70
2022-12-28T10:19:01.979Z,3.50
2022-12-28T10:24:31.416Z,2.75
2022-12-28T10:29:27.976Z,2.35
2022-12-28T10:34:34.564Z,3.60
2022-12-28T10:39:37.179Z,4.30
2022-12-28T10:44:40.567Z,5.35
2022-12-28T10:50:10.380Z,5.57
2022-12-28T10:55:33.406Z,2.30
2022-12-28T11:00:35.272Z,7.38
2022-12-28T11:05:37.256Z,2.45
2022-12-28T11:10:40.248Z,1.48
2022-12-28T11:15:41.622Z,3.80
2022-12-28T11:20:45.967Z,5.35
2022-12-28T11:25:47.860Z,1.67
2022-12-28T11:30:51.764Z,3.50
2022-12-28T11:35:59.516Z,3.38
2022-12-28T11:41:01.148Z,4.00
2022-12-28T11:46:04.507Z,3.67
2022-12-28T11:51:18.453Z,1.77
2022-12-28T11:56:25.340Z,3.10
2022-12-28T12:01:29.844Z,3.72
2022-12-28T12:06:43.318Z,3.88
2022-12-28T12:11:46.287Z,4.55
2022-12-28T12:16:54.126Z,3.38
2022-12-28T12:22:17.473Z,4.00
2022-12-28T12:27:36.445Z,1.27
2022-12-28T12:32:48.441Z,2.70
2022-12-28T12:37:56.564Z,3.78
2022-12-28T12:43:29.357Z,6.57
2022-12-28T12:49:08.057Z,2.03
2022-12-28T12:54:24.445Z,3.20
2022-12-28T13:04:46.212Z,3.15
2022-12-28T13:10:01.123Z,1.67
2022-12-28T13:15:10.777Z,5.15
2022-12-28T13:20:21.713Z,2.97
2022-12-28T13:25:29.315Z,4.00
2022-12-28T13:30:31.084Z,1.58
2022-12-28T13:35:35.092Z,2.65
2022-12-28T13:40:48.093Z,3.75
2022-12-28T13:45:57.496Z,2.28
2022-12-28T13:50:59.357Z,3.42
2022-12-28T13:56:05.953Z,2.25
2022-12-28T14:01:13.384Z,3.95
2022-12-28T14:11:18.284Z,5.38
2022-12-28T14:16:20.020Z,1.25
2022-12-28T14:21:40.975Z,3.00
2022-12-28T14:26:51.351Z,1.85
2022-12-28T14:32:01.630Z,2.47
2022-12-28T14:37:03.139Z,5.30
2022-12-28T14:42:16.619Z,3.63
2022-12-28T14:47:44.586Z,5.13
2022-12-28T14:52:48.540Z,4.03
2022-12-28T14:57:55.441Z,2.47
2022-12-28T15:03:11.575Z,3.88
2022-12-28T15:08:13.095Z,1.70
2022-12-28T15:13:16.348Z,4.07
2022-12-28T15:18:18.873Z,4.82
2022-12-28T15:23:20.980Z,1.73
2022-12-28T15:28:24.944Z,1.65
2022-12-28T15:33:26.275Z,3.50
2022-12-28T15:38:27.876Z,2.28
2022-12-28T15:43:29.432Z,4.40
2022-12-28T15:48:31.382Z,3.33
2022-12-28T15:53:32.726Z,2.10
2022-12-28T15:58:34.113Z,1.30
2022-12-28T16:03:35.560Z,3.17
2022-12-28T16:08:36.997Z,1.40
2022-12-28T16:13:38.402Z,1.20
2022-12-28T16:18:39.937Z,4.43
2022-12-28T16:23:43.137Z,1.85
2022-12-28T16:28:44.717Z,6.65
2022-12-28T16:33:46.361Z,1.65
2022-12-28T16:38:50.618Z,2.05
2022-12-28T16:43:52.430Z,2.58
2022-12-28T16:48:54.200Z,1.40
2022-12-28T16:53:59.240Z,5.00
2022-12-28T16:59:01.276Z,4.22
2022-12-28T17:04:04.395Z,1.52
2022-12-28T17:09:09.801Z,1.40
2022-12-28T17:14:17.437Z,2.35
2022-12-28T17:19:26.703Z,2.05
2022-12-28T17:24:30.756Z,3.42
2022-12-28T17:29:32.870Z,2.58
2022-12-28T17:34:34.645Z,4.90
2022-12-28T17:39:40.628Z,2.17
2022-12-28T17:44:42.180Z,3.55
2022-12-28T17:49:43.518Z,2.88
2022-12-28T17:54:44.824Z,3.08
2022-12-28T17:59:46.137Z,2.05
2022-12-28T18:04:48.038Z,3.58
2022-12-28T18:09:49.353Z,2.22
2022-12-28T18:14:50.771Z,3.22
2022-12-28T18:19:53.407Z,2.47
2022-12-28T18:24:54.823Z,1.92
2022-12-28T18:29:56.142Z,6.43
2022-12-28T18:34:57.473Z,5.68
2022-12-28T18:39:58.822Z,4.30
2022-12-28T18:45:00.415Z,3.35
2022-12-28T18:50:03.117Z,3.58
2022-12-28T18:55:05.520Z,3.40
2022-12-28T19:00:11.190Z,5.78
2022-12-28T19:05:15.528Z,4.82
2022-12-28T19:10:17.671Z,1.80
2022-12-28T19:15:22.239Z,2.35
2022-12-28T19:20:24.291Z,3.72
2022-12-28T19:25:26.023Z,3.78
2022-12-28T19:30:27.666Z,2.25
2022-12-28T19:35:29.548Z,6.18
2022-12-28T19:40:31.143Z,3.03
2022-12-28T19:45:32.896Z,2.58
2022-12-28T19:50:38.359Z,3.72
2022-12-28T19:55:42.986Z,4.28
2022-12-28T20:00:44.762Z,3.78
2022-12-28T20:05:46.738Z,2.50
2022-12-28T20:10:57.636Z,5.13
2022-12-28T20:16:00.122Z,3.40
2022-12-28T20:21:22.041Z,3.60
2022-12-28T20:26:28.456Z,4.28
2022-12-28T20:31:33.629Z,3.97
2022-12-28T20:36:35.246Z,4.55
2022-12-28T20:41:56.664Z,3.72
2022-12-28T20:46:59.998Z,3.85
2022-12-28T20:52:01.697Z,7.95
2022-12-28T20:57:03.417Z,8.25
2022-12-28T21:02:05.141Z,22.83
2022-12-28T21:07:11.497Z,16.98
2022-12-28T21:12:13.279Z,12.98
2022-12-28T21:17:15.082Z,13.20
2022-12-28T21:22:25.629Z,53.55
2022-12-28T21:27:28.619Z,43.53
2022-12-28T21:32:29.975Z,32.22
2022-12-28T21:37:34.098Z,21.60
2022-12-28T21:42:36.305Z,12.85
2022-12-28T21:47:37.883Z,7.30
2022-12-28T21:52:39.266Z,4.68
2022-12-28T21:57:40.588Z,2.28
2022-12-28T22:03:00.517Z,5.88
2022-12-28T22:08:21.939Z,6.40
2022-12-28T22:13:23.280Z,2.72
2022-12-28T22:19:00.393Z,7.10
2022-12-28T22:23:48.816Z,5.13
2022-12-28T22:28:50.340Z,6.00
2022-12-28T22:33:54.984Z,3.63
2022-12-28T22:38:56.409Z,3.92
2022-12-28T22:43:57.839Z,2.63
2022-12-28T22:48:59.276Z,3.10
2022-12-28T22:54:00.992Z,4.88
2022-12-28T22:59:04.914Z,2.67
2022-12-28T23:04:07.783Z,3.60
2022-12-28T23:09:09.302Z,2.60
2022-12-28T23:14:35.441Z,2.42
2022-12-28T23:20:00.315Z,1.52
2022-12-28T23:25:20.810Z,2.05
2022-12-28T23:30:22.573Z,3.13
2022-12-28T23:35:26.191Z,1.33
2022-12-28T23:40:27.722Z,1.95
2022-12-28T23:45:29.278Z,2.35
2022-12-28T23:50:30.840Z,2.83
2022-12-28T23:55:32.188Z,4.22
